Terminal Aerodrome Forecast
Issued by NWS Louisville, KY

Home | Current Version | Previous Version | Text Only | Print | Product List | Glossary On
Versions: 1 2 3 4 5 6 7 8 9 10 11 12 13 14 15 16 17 18 19 20 21 22 23
000
FTUS43 KLMK 011100
TAFLEX
TAF
KLEX 011120Z 0112/0212 23005KT 3SM BR FEW015 BKN120
     FM011300 26007KT P6SM SCT015 BKN040
     FM012100 25006KT P6SM VCTS BKN040CB
     FM020900 18005KT P6SM BKN035=

USA.gov is the U.S. government's official web portal to all federal, state and local government web resources and services.